createdAt,value
2023-01-31T00:00:41.999Z,72.74
2023-01-31T00:01:41.994Z,72.95
2023-01-31T00:02:42.024Z,73.47
2023-01-31T00:03:42.038Z,72.85
2023-01-31T00:04:41.951Z,73.16
2023-01-31T00:05:41.932Z,73.88
2023-01-31T00:06:41.938Z,73.05
2023-01-31T00:07:41.987Z,73.26
2023-01-31T00:08:41.906Z,73.39
2023-01-31T00:09:41.894Z,73.26
2023-01-31T00:10:41.881Z,72.64
2023-01-31T00:11:41.888Z,72.85
2023-01-31T00:12:41.881Z,72.98
2023-01-31T00:13:41.852Z,73.19
2023-01-31T00:14:41.831Z,73.50
2023-01-31T00:15:41.849Z,73.39
2023-01-31T00:16:41.835Z,74.22
2023-01-31T00:17:41.822Z,74.43
2023-01-31T00:18:41.818Z,73.08
2023-01-31T00:19:41.813Z,73.29
2023-01-31T00:20:41.797Z,73.91
2023-01-31T00:21:41.756Z,73.60
2023-01-31T00:22:41.753Z,73.50
2023-01-31T00:23:41.733Z,73.50
2023-01-31T00:24:41.737Z,73.60
2023-01-31T00:25:41.711Z,73.50
2023-01-31T00:26:41.724Z,73.54
2023-01-31T00:27:41.695Z,73.50
2023-01-31T00:28:41.710Z,73.84
2023-01-31T00:29:41.678Z,74.53
2023-01-31T00:30:41.663Z,74.15
2023-01-31T00:31:41.765Z,74.43
2023-01-31T00:32:41.661Z,74.33
2023-01-31T00:33:41.634Z,74.53
2023-01-31T00:34:41.652Z,74.22
2023-01-31T00:35:41.618Z,73.60
2023-01-31T00:36:41.597Z,74.12
2023-01-31T00:37:41.578Z,74.02
2023-01-31T00:38:41.570Z,73.29
2023-01-31T00:39:41.568Z,73.50
2023-01-31T00:40:41.587Z,73.29
2023-01-31T00:41:41.551Z,73.60
2023-01-31T00:42:41.528Z,73.39
2023-01-31T00:43:41.528Z,73.43
2023-01-31T00:44:41.505Z,73.43
2023-01-31T00:45:41.507Z,73.60
2023-01-31T00:46:41.563Z,73.60
2023-01-31T00:47:41.469Z,74.22
2023-01-31T00:48:41.482Z,74.57
2023-01-31T00:49:41.460Z,74.33
2023-01-31T00:50:41.446Z,74.26
2023-01-31T00:51:41.446Z,74.46
2023-01-31T00:52:41.452Z,74.46
2023-01-31T00:53:41.434Z,74.15
2023-01-31T00:54:41.403Z,73.84
2023-01-31T00:55:41.414Z,74.43
2023-01-31T00:56:41.437Z,74.33
2023-01-31T00:57:41.377Z,74.33
2023-01-31T00:58:41.354Z,73.50
2023-01-31T00:59:41.375Z,73.08
2023-01-31T01:00:41.401Z,73.08
2023-01-31T01:01:41.353Z,73.19
2023-01-31T01:02:41.335Z,73.50
2023-01-31T01:03:41.317Z,73.08
2023-01-31T01:04:41.318Z,73.39
2023-01-31T01:05:41.284Z,73.50
2023-01-31T01:06:41.292Z,73.39
2023-01-31T01:07:41.279Z,73.39
2023-01-31T01:08:41.259Z,73.36
2023-01-31T01:09:41.244Z,73.36
2023-01-31T01:10:41.237Z,73.47
2023-01-31T01:11:41.222Z,73.29
2023-01-31T01:12:41.288Z,72.64
2023-01-31T01:13:41.207Z,72.74
2023-01-31T01:14:41.200Z,72.95
2023-01-31T01:15:41.189Z,72.95
2023-01-31T01:16:41.244Z,72.74
2023-01-31T01:17:41.151Z,72.64
2023-01-31T01:18:41.171Z,72.64
2023-01-31T01:19:41.136Z,72.85
2023-01-31T01:20:41.138Z,73.02
2023-01-31T01:21:41.125Z,72.81
2023-01-31T01:22:41.111Z,72.19
2023-01-31T01:23:41.099Z,72.43
2023-01-31T01:24:41.096Z,72.74
2023-01-31T01:25:41.073Z,72.85
2023-01-31T01:26:41.297Z,72.81
2023-01-31T01:27:41.053Z,72.53
2023-01-31T01:28:41.040Z,72.64
2023-01-31T01:29:41.046Z,72.91
2023-01-31T01:30:41.016Z,72.40
2023-01-31T01:31:41.110Z,72.95
2023-01-31T01:32:41.044Z,73.12
2023-01-31T01:33:40.999Z,73.02
2023-01-31T01:34:40.976Z,72.81
2023-01-31T01:35:40.988Z,71.78
2023-01-31T01:36:40.984Z,71.78
2023-01-31T01:37:41.045Z,71.67
2023-01-31T01:38:40.960Z,71.81
2023-01-31T01:39:40.935Z,71.88
2023-01-31T01:40:40.911Z,72.43
2023-01-31T01:41:40.918Z,72.30
2023-01-31T01:42:40.889Z,72.02
2023-01-31T01:43:40.888Z,71.81
2023-01-31T01:44:40.882Z,71.71
2023-01-31T01:45:40.979Z,71.95
2023-01-31T01:46:40.859Z,72.43
2023-01-31T01:47:40.858Z,72.85
2023-01-31T01:48:40.846Z,72.43
2023-01-31T01:49:40.823Z,72.33
2023-01-31T01:50:40.831Z,72.85
2023-01-31T01:51:40.802Z,72.64
2023-01-31T01:52:40.822Z,72.91
2023-01-31T01:53:40.784Z,72.74
2023-01-31T01:54:40.787Z,72.33
2023-01-31T01:55:40.761Z,72.33
2023-01-31T01:56:40.743Z,72.71
2023-01-31T01:57:40.741Z,72.74
2023-01-31T01:58:40.723Z,72.53
2023-01-31T01:59:40.714Z,72.61
2023-01-31T02:00:40.834Z,72.95
2023-01-31T02:01:40.717Z,72.40
2023-01-31T02:02:40.750Z,72.53
2023-01-31T02:03:40.678Z,72.50
2023-01-31T02:04:40.678Z,72.22
2023-01-31T02:05:40.656Z,72.50
2023-01-31T02:06:40.632Z,72.64
2023-01-31T02:07:41.866Z,72.74
2023-01-31T02:08:40.640Z,72.64
2023-01-31T02:09:40.630Z,72.64
2023-01-31T02:10:40.596Z,72.43
2023-01-31T02:11:40.600Z,72.64
2023-01-31T02:12:40.577Z,73.05
2023-01-31T02:13:40.558Z,73.36
2023-01-31T02:14:40.560Z,73.16
2023-01-31T02:15:40.566Z,73.26
2023-01-31T02:16:40.575Z,73.26
2023-01-31T02:17:40.521Z,72.95
2023-01-31T02:18:40.515Z,72.95
2023-01-31T02:19:40.515Z,73.05
2023-01-31T02:20:40.496Z,73.05
2023-01-31T02:21:40.478Z,72.74
2023-01-31T02:22:40.464Z,72.85
2023-01-31T02:23:40.484Z,73.16
2023-01-31T02:24:40.468Z,73.43
2023-01-31T02:25:40.432Z,73.26
2023-01-31T02:26:40.464Z,73.26
2023-01-31T02:27:40.410Z,72.53
2023-01-31T02:28:40.408Z,72.85
2023-01-31T02:29:40.416Z,73.36
2023-01-31T02:30:40.408Z,73.33
2023-01-31T02:31:40.431Z,73.22
2023-01-31T02:32:40.371Z,72.85
2023-01-31T02:33:40.350Z,73.16
2023-01-31T02:34:40.349Z,72.71
2023-01-31T02:35:40.371Z,72.61
2023-01-31T02:36:40.317Z,72.50
2023-01-31T02:37:40.324Z,72.71
2023-01-31T02:38:40.304Z,73.02
2023-01-31T02:39:40.291Z,72.71
2023-01-31T02:40:40.303Z,72.61
2023-01-31T02:41:40.269Z,72.61
2023-01-31T02:42:40.264Z,72.71
2023-01-31T02:43:40.249Z,72.91
2023-01-31T02:44:40.254Z,73.02
2023-01-31T02:45:40.303Z,72.74
2023-01-31T02:46:40.215Z,72.74
2023-01-31T02:47:40.197Z,73.02
2023-01-31T02:48:40.202Z,73.05
2023-01-31T02:49:40.181Z,72.43
2023-01-31T02:50:40.183Z,72.64
2023-01-31T02:51:40.165Z,72.95
2023-01-31T02:52:40.151Z,72.64
2023-01-31T02:53:40.142Z,72.95
2023-01-31T02:54:40.134Z,73.05
2023-01-31T02:55:40.128Z,73.36
2023-01-31T02:56:40.118Z,73.26
2023-01-31T02:57:40.096Z,73.39
2023-01-31T02:58:40.090Z,73.50
2023-01-31T02:59:40.074Z,73.50
2023-01-31T03:00:40.094Z,73.19
2023-01-31T03:01:40.153Z,74.12
2023-01-31T03:02:40.139Z,74.43
2023-01-31T03:03:40.038Z,74.43
2023-01-31T03:04:40.044Z,73.81
2023-01-31T03:05:40.008Z,73.81
2023-01-31T03:06:40.035Z,73.81
2023-01-31T03:07:40.017Z,73.84
2023-01-31T03:08:39.976Z,74.67
2023-01-31T03:09:40.006Z,74.57
2023-01-31T03:10:39.964Z,74.63
2023-01-31T03:11:39.965Z,74.43
2023-01-31T03:12:39.969Z,74.57
2023-01-31T03:13:39.974Z,74.67
2023-01-31T03:14:39.978Z,74.05
2023-01-31T03:15:39.934Z,74.98
2023-01-31T03:16:39.992Z,74.98
2023-01-31T03:17:39.888Z,74.98
2023-01-31T03:18:39.888Z,75.29
2023-01-31T03:19:39.859Z,75.53
2023-01-31T03:20:39.859Z,76.36
2023-01-31T03:21:39.870Z,75.95
2023-01-31T03:22:39.890Z,75.95
2023-01-31T03:23:39.875Z,76.15
2023-01-31T03:24:39.821Z,76.46
2023-01-31T03:25:39.820Z,76.67
2023-01-31T03:26:39.877Z,76.57
2023-01-31T03:27:39.812Z,76.57
2023-01-31T03:28:39.799Z,76.36
2023-01-31T03:29:39.753Z,76.36
2023-01-31T03:30:39.926Z,76.26
2023-01-31T03:31:39.943Z,76.36
2023-01-31T03:32:39.802Z,76.57
2023-01-31T03:33:39.783Z,76.15
2023-01-31T03:34:39.709Z,76.46
2023-01-31T03:35:39.687Z,76.46
2023-01-31T03:36:39.682Z,76.46
2023-01-31T03:37:39.686Z,76.26
2023-01-31T03:38:39.666Z,76.26
2023-01-31T03:39:39.717Z,76.26
2023-01-31T03:40:39.642Z,76.46
2023-01-31T03:41:40.176Z,76.36
2023-01-31T03:42:39.624Z,76.46
2023-01-31T03:43:39.632Z,76.26
2023-01-31T03:44:39.663Z,76.46
2023-01-31T03:45:39.583Z,76.61
2023-01-31T03:46:39.638Z,76.57
2023-01-31T03:47:39.576Z,76.46
2023-01-31T03:48:39.599Z,76.40
2023-01-31T03:49:39.572Z,76.71
2023-01-31T03:50:39.530Z,76.40
2023-01-31T03:51:39.574Z,76.61
2023-01-31T03:52:39.504Z,76.61
2023-01-31T03:53:39.520Z,76.50
2023-01-31T03:54:39.510Z,76.91
2023-01-31T03:55:39.483Z,76.91
2023-01-31T03:56:39.467Z,77.01
2023-01-31T03:57:39.451Z,77.12
2023-01-31T03:58:39.461Z,77.39
2023-01-31T03:59:39.507Z,77.39
2023-01-31T04:00:39.458Z,77.29
2023-01-31T04:01:39.490Z,77.74
2023-01-31T04:02:39.464Z,77.53
2023-01-31T04:03:39.400Z,77.64
2023-01-31T04:04:39.389Z,77.33
2023-01-31T04:05:39.373Z,77.33
2023-01-31T04:06:39.355Z,77.43
2023-01-31T04:07:39.403Z,77.84
2023-01-31T04:08:39.345Z,77.74
2023-01-31T04:09:39.337Z,77.95
2023-01-31T04:10:39.315Z,78.05
2023-01-31T04:11:39.305Z,78.47
2023-01-31T04:12:39.298Z,78.16
2023-01-31T04:13:39.303Z,78.05
2023-01-31T04:14:39.282Z,78.05
2023-01-31T04:15:39.381Z,78.05
2023-01-31T04:16:39.272Z,78.16
2023-01-31T04:17:39.266Z,78.05
2023-01-31T04:18:39.235Z,78.47
2023-01-31T04:19:39.236Z,77.43
2023-01-31T04:20:39.229Z,77.43
2023-01-31T04:21:39.197Z,77.64
2023-01-31T04:22:39.196Z,77.64
2023-01-31T04:23:39.201Z,77.43
2023-01-31T04:24:39.167Z,77.53
2023-01-31T04:25:39.182Z,77.53
2023-01-31T04:26:39.219Z,78.43
2023-01-31T04:27:39.153Z,78.26
2023-01-31T04:28:39.128Z,78.16
2023-01-31T04:29:39.125Z,78.43
2023-01-31T04:30:39.112Z,78.26
2023-01-31T04:31:39.146Z,78.47
2023-01-31T04:32:39.104Z,78.57
2023-01-31T04:33:39.069Z,78.71
2023-01-31T04:34:39.082Z,78.67
2023-01-31T04:35:39.054Z,78.57
2023-01-31T04:36:39.037Z,78.26
2023-01-31T04:37:39.026Z,78.57
2023-01-31T04:38:39.016Z,78.78
2023-01-31T04:39:39.016Z,78.67
2023-01-31T04:40:39.014Z,78.47
2023-01-31T04:41:38.984Z,78.47
2023-01-31T04:42:38.981Z,78.57
2023-01-31T04:43:38.969Z,78.57
2023-01-31T04:44:38.965Z,78.78
2023-01-31T04:45:38.961Z,78.67
2023-01-31T04:46:38.992Z,78.88
2023-01-31T04:47:38.982Z,78.88
2023-01-31T04:48:38.944Z,78.99
2023-01-31T04:49:38.905Z,79.09
2023-01-31T04:50:38.905Z,78.99
2023-01-31T04:51:38.875Z,79.13
2023-01-31T04:52:38.876Z,79.13
2023-01-31T04:53:38.883Z,79.44
2023-01-31T04:54:38.862Z,79.44
2023-01-31T04:55:38.858Z,79.44
2023-01-31T04:56:38.843Z,79.23
2023-01-31T04:57:38.814Z,79.09
2023-01-31T04:58:38.871Z,79.33
2023-01-31T04:59:38.820Z,79.74
2023-01-31T05:00:38.853Z,79.64
2023-01-31T05:01:38.823Z,79.74
2023-01-31T05:02:38.806Z,80.16
2023-01-31T05:03:38.755Z,80.36
2023-01-31T05:04:38.767Z,80.05
2023-01-31T05:05:38.774Z,80.36
2023-01-31T05:06:38.717Z,79.64
2023-01-31T05:07:38.717Z,79.85
2023-01-31T05:08:38.699Z,80.16
2023-01-31T05:09:38.685Z,80.16
2023-01-31T05:10:38.681Z,79.74
2023-01-31T05:11:38.662Z,79.85
2023-01-31T05:12:38.682Z,79.64
2023-01-31T05:13:38.652Z,79.74
2023-01-31T05:14:38.634Z,80.05
2023-01-31T05:15:38.627Z,80.26
2023-01-31T05:16:38.641Z,80.22
2023-01-31T05:17:38.607Z,80.22
2023-01-31T05:18:38.597Z,80.12
2023-01-31T05:19:38.588Z,80.26
2023-01-31T05:20:38.613Z,79.81
2023-01-31T05:21:38.578Z,80.12
2023-01-31T05:22:38.553Z,80.22
2023-01-31T05:23:38.548Z,80.22
2023-01-31T05:24:38.537Z,80.02
2023-01-31T05:25:38.526Z,80.02
2023-01-31T05:26:38.640Z,80.02
2023-01-31T05:27:38.498Z,80.02
2023-01-31T05:28:38.496Z,80.12
2023-01-31T05:29:38.474Z,80.02
2023-01-31T05:30:38.479Z,79.95
2023-01-31T05:31:38.478Z,79.71
2023-01-31T05:32:38.460Z,79.91
2023-01-31T05:33:38.437Z,80.12
2023-01-31T05:34:38.425Z,80.64
2023-01-31T05:35:38.409Z,81.26
2023-01-31T05:36:38.437Z,80.54
2023-01-31T05:37:38.399Z,80.64
2023-01-31T05:38:38.370Z,80.85
2023-01-31T05:39:38.394Z,81.26
2023-01-31T05:40:38.367Z,80.74
2023-01-31T05:41:38.365Z,80.54
2023-01-31T05:42:38.343Z,79.88
2023-01-31T05:43:38.349Z,80.02
2023-01-31T05:44:38.320Z,80.29
2023-01-31T05:45:38.322Z,79.88
2023-01-31T05:46:38.297Z,79.67
2023-01-31T05:47:38.289Z,79.67
2023-01-31T05:48:38.278Z,79.57
2023-01-31T05:49:38.272Z,79.67
2023-01-31T05:50:38.254Z,79.98
2023-01-31T05:51:38.235Z,79.67
2023-01-31T05:52:38.255Z,80.08
2023-01-31T05:53:38.390Z,79.57
2023-01-31T05:54:38.274Z,79.67
2023-01-31T05:55:38.206Z,80.08
2023-01-31T05:56:38.184Z,79.98
2023-01-31T05:57:38.176Z,79.98
2023-01-31T05:58:38.265Z,80.19
2023-01-31T05:59:38.185Z,80.60
2023-01-31T06:00:38.151Z,80.40
2023-01-31T06:01:38.141Z,80.08
2023-01-31T06:02:38.133Z,80.71
2023-01-31T06:03:38.157Z,80.60
2023-01-31T06:04:38.108Z,80.40
2023-01-31T06:05:44.696Z,80.50
2023-01-31T06:06:38.278Z,80.81
2023-01-31T06:07:38.075Z,80.57
2023-01-31T06:08:38.081Z,80.81
2023-01-31T06:09:38.055Z,79.88
2023-01-31T06:10:38.030Z,80.71
2023-01-31T06:11:38.031Z,80.91
2023-01-31T06:12:38.024Z,80.91
2023-01-31T06:13:38.010Z,80.81
2023-01-31T06:14:38.008Z,80.71
2023-01-31T06:16:00.809Z,80.91
2023-01-31T06:16:37.994Z,81.23
2023-01-31T06:17:37.967Z,80.77
2023-01-31T06:18:37.959Z,80.91
2023-01-31T06:19:37.950Z,80.98
2023-01-31T06:20:37.963Z,81.19
2023-01-31T06:21:37.921Z,80.67
2023-01-31T06:22:37.936Z,80.57
2023-01-31T06:23:37.907Z,79.84
2023-01-31T06:24:37.905Z,79.84
2023-01-31T06:25:37.882Z,80.05
2023-01-31T06:26:37.947Z,79.94
2023-01-31T06:27:37.881Z,80.36
2023-01-31T06:28:37.841Z,80.36
2023-01-31T06:29:37.838Z,80.15
2023-01-31T06:30:38.012Z,80.26
2023-01-31T06:31:37.901Z,79.84
2023-01-31T06:32:37.797Z,79.84
2023-01-31T06:33:45.906Z,79.94
2023-01-31T06:34:38.775Z,80.36
2023-01-31T06:35:37.767Z,80.57
2023-01-31T06:36:37.776Z,80.46
2023-01-31T06:37:37.759Z,80.60
2023-01-31T06:38:37.734Z,80.57
2023-01-31T06:39:37.740Z,80.77
2023-01-31T06:40:37.742Z,81.02
2023-01-31T06:41:37.715Z,81.02
2023-01-31T06:42:37.701Z,81.64
2023-01-31T06:43:37.692Z,81.12
2023-01-31T06:44:37.685Z,81.33
2023-01-31T06:45:37.657Z,81.74
2023-01-31T06:46:37.677Z,81.74
2023-01-31T06:47:37.640Z,81.64
2023-01-31T06:48:37.641Z,81.84
2023-01-31T06:49:37.671Z,81.64
2023-01-31T06:50:37.614Z,81.84
2023-01-31T06:51:37.614Z,81.74
2023-01-31T06:52:37.597Z,81.70
2023-01-31T06:53:37.581Z,81.91
2023-01-31T06:54:37.574Z,81.84
2023-01-31T06:55:37.557Z,81.64
2023-01-31T06:56:37.565Z,81.09
2023-01-31T06:57:37.592Z,81.74
2023-01-31T06:58:37.532Z,81.39
2023-01-31T06:59:37.532Z,81.43
2023-01-31T07:00:37.507Z,81.70
2023-01-31T07:01:37.738Z,81.81
2023-01-31T07:02:37.486Z,81.81
2023-01-31T07:03:37.478Z,82.01
2023-01-31T07:04:37.510Z,81.60
2023-01-31T07:05:37.444Z,82.64
2023-01-31T07:06:37.437Z,82.53
2023-01-31T07:07:37.435Z,82.53
2023-01-31T07:08:37.425Z,82.50
2023-01-31T07:09:37.420Z,82.60
2023-01-31T07:10:37.390Z,82.64
2023-01-31T07:11:37.387Z,82.32
2023-01-31T07:12:37.405Z,82.12
2023-01-31T07:13:37.358Z,82.32
2023-01-31T07:14:37.388Z,82.95
2023-01-31T07:15:37.353Z,83.61
2023-01-31T07:16:37.329Z,83.61
2023-01-31T07:17:37.315Z,84.22
2023-01-31T07:18:37.327Z,84.22
2023-01-31T07:19:37.747Z,83.61
2023-01-31T07:20:37.290Z,83.71
2023-01-31T07:21:37.280Z,83.91
2023-01-31T07:22:37.267Z,83.71
2023-01-31T07:23:37.264Z,83.87
2023-01-31T07:24:37.275Z,84.19
2023-01-31T07:25:37.251Z,84.19
2023-01-31T07:26:37.284Z,83.77
2023-01-31T07:27:37.219Z,83.56
2023-01-31T07:28:37.230Z,83.98
2023-01-31T07:29:38.430Z,83.98
2023-01-31T07:30:37.223Z,84.08
2023-01-31T07:31:37.249Z,83.98
2023-01-31T07:32:37.166Z,83.87
2023-01-31T07:33:37.158Z,84.19
2023-01-31T07:34:37.151Z,83.98
2023-01-31T07:35:37.150Z,84.08
2023-01-31T07:36:37.119Z,83.36
2023-01-31T07:37:37.105Z,83.15
2023-01-31T07:38:37.104Z,83.56
2023-01-31T07:39:37.091Z,83.56
2023-01-31T07:40:37.100Z,83.71
2023-01-31T07:41:37.077Z,83.77
2023-01-31T07:42:37.060Z,83.46
2023-01-31T07:43:37.061Z,83.77
2023-01-31T07:44:37.061Z,83.67
2023-01-31T07:45:38.607Z,83.77
2023-01-31T07:46:37.017Z,83.87
2023-01-31T07:47:37.007Z,83.56
2023-01-31T07:48:36.989Z,83.73
2023-01-31T07:49:36.992Z,84.19
2023-01-31T07:50:36.966Z,84.19
2023-01-31T07:51:36.983Z,84.08
2023-01-31T07:52:36.958Z,83.98
2023-01-31T07:53:37.662Z,84.19
2023-01-31T07:54:36.939Z,84.08
2023-01-31T07:55:36.932Z,83.67
2023-01-31T07:56:36.925Z,83.67
2023-01-31T07:57:36.911Z,83.77
2023-01-31T07:58:36.913Z,83.77
2023-01-31T07:59:36.895Z,83.77
2023-01-31T08:00:36.876Z,83.73
2023-01-31T08:01:36.917Z,83.67
2023-01-31T08:02:36.870Z,83.77
2023-01-31T08:03:36.829Z,83.77
2023-01-31T08:04:36.871Z,83.63
2023-01-31T08:05:36.813Z,83.53
2023-01-31T08:06:36.822Z,83.84
2023-01-31T08:07:36.788Z,83.84
2023-01-31T08:08:36.773Z,83.84
2023-01-31T08:09:36.785Z,83.32
2023-01-31T08:10:36.757Z,83.42
2023-01-31T08:11:36.752Z,83.42
2023-01-31T08:12:36.741Z,83.22
2023-01-31T08:13:36.731Z,83.53
2023-01-31T08:14:36.735Z,83.32
2023-01-31T08:15:36.712Z,83.22
2023-01-31T08:16:36.715Z,83.63
2023-01-31T08:17:36.718Z,83.73
2023-01-31T08:18:36.677Z,83.42
2023-01-31T08:19:36.673Z,84.45
2023-01-31T08:20:36.682Z,85.28
2023-01-31T08:21:36.643Z,86.52
2023-01-31T08:22:36.651Z,86.18
2023-01-31T08:23:36.632Z,84.97
2023-01-31T08:24:36.613Z,85.49
2023-01-31T08:25:36.592Z,85.28
2023-01-31T08:26:36.679Z,86.21
2023-01-31T08:27:36.605Z,86.49
2023-01-31T08:28:36.571Z,85.45
2023-01-31T08:29:36.563Z,85.24
2023-01-31T08:30:36.585Z,84.63
2023-01-31T08:31:36.640Z,85.04
2023-01-31T08:32:36.545Z,84.63
2023-01-31T08:33:36.519Z,84.73
2023-01-31T08:34:36.513Z,84.42
2023-01-31T08:35:36.501Z,83.80
2023-01-31T08:36:36.519Z,84.42
2023-01-31T08:37:36.495Z,85.04
2023-01-31T08:38:36.494Z,85.14
2023-01-31T08:39:36.480Z,85.24
2023-01-31T08:40:36.487Z,84.94
2023-01-31T08:41:36.434Z,84.73
2023-01-31T08:42:36.443Z,85.14
2023-01-31T08:43:53.816Z,84.83
2023-01-31T08:44:37.395Z,84.87
2023-01-31T08:45:36.392Z,85.28
2023-01-31T08:46:36.507Z,84.97
2023-01-31T08:47:36.365Z,85.24
2023-01-31T08:48:36.384Z,85.04
2023-01-31T08:49:36.383Z,84.73
2023-01-31T08:50:36.347Z,84.73
2023-01-31T08:51:36.335Z,84.83
2023-01-31T08:52:36.314Z,84.83
2023-01-31T08:53:36.311Z,84.94
2023-01-31T08:54:36.314Z,84.83
2023-01-31T08:55:36.289Z,85.24
2023-01-31T08:56:36.297Z,84.73
2023-01-31T08:57:43.161Z,85.04
2023-01-31T08:58:37.248Z,84.31
2023-01-31T08:59:36.269Z,83.80
2023-01-31T09:00:36.240Z,83.90
2023-01-31T09:01:36.247Z,84.21
2023-01-31T09:02:36.245Z,83.80
2023-01-31T09:03:36.199Z,84.21
2023-01-31T09:04:36.220Z,84.00
2023-01-31T09:05:36.183Z,83.90
2023-01-31T09:06:36.184Z,85.14
2023-01-31T09:07:36.154Z,84.83
2023-01-31T09:08:36.162Z,84.83
2023-01-31T09:09:36.168Z,84.21
2023-01-31T09:10:36.153Z,84.00
2023-01-31T09:11:36.161Z,84.11
2023-01-31T09:12:36.105Z,83.80
2023-01-31T09:13:36.137Z,83.49
2023-01-31T09:14:36.098Z,84.00
2023-01-31T09:15:36.072Z,83.70
2023-01-31T09:16:36.088Z,83.73
2023-01-31T09:17:36.055Z,83.80
2023-01-31T09:18:36.051Z,83.80
2023-01-31T09:19:36.054Z,83.59
2023-01-31T09:20:36.043Z,83.59
2023-01-31T09:21:36.012Z,83.70
2023-01-31T09:22:35.994Z,83.70
2023-01-31T09:23:35.996Z,83.80
2023-01-31T09:24:35.989Z,83.70
2023-01-31T09:25:45.739Z,83.94
2023-01-31T09:26:36.977Z,83.59
2023-01-31T09:27:35.952Z,84.00
2023-01-31T09:28:35.959Z,83.70
2023-01-31T09:29:35.931Z,84.11
2023-01-31T09:30:35.960Z,83.70
2023-01-31T09:31:35.961Z,83.34
2023-01-31T09:32:35.907Z,83.34
2023-01-31T09:33:35.894Z,82.83
2023-01-31T09:34:35.877Z,83.04
2023-01-31T09:35:35.860Z,82.93
2023-01-31T09:36:35.868Z,82.42
2023-01-31T09:37:35.848Z,82.62
2023-01-31T09:38:35.849Z,83.04
2023-01-31T09:39:35.823Z,82.62
2023-01-31T09:40:36.481Z,82.31
2023-01-31T09:41:36.362Z,82.31
2023-01-31T09:42:36.061Z,82.59
2023-01-31T09:43:36.122Z,81.80
2023-01-31T09:44:36.080Z,81.76
2023-01-31T09:45:35.950Z,81.76
2023-01-31T09:46:35.766Z,81.56
2023-01-31T09:47:35.737Z,81.56
2023-01-31T09:48:35.731Z,81.45
2023-01-31T09:49:35.713Z,81.45
2023-01-31T09:50:35.706Z,81.56
2023-01-31T09:51:35.718Z,81.24
2023-01-31T09:52:35.698Z,81.35
2023-01-31T09:53:36.394Z,81.45
2023-01-31T09:54:36.391Z,81.56
2023-01-31T09:55:36.108Z,81.35
2023-01-31T09:56:35.650Z,80.93
2023-01-31T09:57:35.965Z,80.83
2023-01-31T09:58:35.616Z,80.83
2023-01-31T09:59:35.640Z,80.79
2023-01-31T10:00:35.586Z,81.41
2023-01-31T10:01:36.182Z,81.21
2023-01-31T10:02:35.575Z,81.14
2023-01-31T10:03:35.595Z,81.45
2023-01-31T10:04:35.546Z,80.48
2023-01-31T10:05:35.556Z,80.83
2023-01-31T10:06:35.543Z,80.42
2023-01-31T10:07:36.069Z,81.35
2023-01-31T10:08:36.095Z,80.93
2023-01-31T10:09:35.985Z,81.51
2023-01-31T10:10:35.502Z,81.45
2023-01-31T10:11:36.631Z,80.79
2023-01-31T10:12:35.467Z,80.62
2023-01-31T10:13:35.486Z,80.62
2023-01-31T10:14:35.445Z,80.79
2023-01-31T10:15:35.444Z,80.69
2023-01-31T10:16:35.416Z,80.62
2023-01-31T10:17:35.436Z,80.79
2023-01-31T10:18:35.397Z,80.62
2023-01-31T10:19:35.395Z,80.58
2023-01-31T10:20:35.384Z,80.32
2023-01-31T10:21:35.380Z,80.90
2023-01-31T10:22:35.348Z,80.79
2023-01-31T10:23:35.350Z,80.48
2023-01-31T10:24:35.355Z,79.86
2023-01-31T10:25:35.332Z,80.38
2023-01-31T10:26:35.324Z,80.18
2023-01-31T10:27:35.316Z,79.76
2023-01-31T10:28:35.304Z,79.97
2023-01-31T10:29:35.277Z,80.42
2023-01-31T10:30:35.285Z,80.62
2023-01-31T10:31:35.316Z,80.62
2023-01-31T10:32:35.269Z,81.41
2023-01-31T10:33:35.237Z,82.59
2023-01-31T10:34:35.227Z,82.79
2023-01-31T10:35:35.224Z,82.75
2023-01-31T10:36:35.213Z,84.13
2023-01-31T10:37:35.192Z,83.83
2023-01-31T10:38:35.195Z,83.93
2023-01-31T10:39:35.197Z,83.72
2023-01-31T10:40:35.184Z,84.75
2023-01-31T10:41:35.142Z,84.17
2023-01-31T10:42:35.156Z,84.38
2023-01-31T10:43:35.124Z,84.07
2023-01-31T10:44:35.131Z,84.13
2023-01-31T10:45:35.182Z,84.03
2023-01-31T10:46:35.092Z,84.13
2023-01-31T10:47:35.081Z,83.93
2023-01-31T10:48:35.065Z,83.31
2023-01-31T10:49:35.083Z,83.31
2023-01-31T10:50:35.056Z,83.20
2023-01-31T10:51:35.045Z,82.96
2023-01-31T10:52:35.032Z,82.65
2023-01-31T10:53:35.012Z,82.65
2023-01-31T10:54:35.013Z,82.75
2023-01-31T10:55:35.029Z,82.65
2023-01-31T10:56:35.710Z,82.65
2023-01-31T10:57:35.441Z,82.75
2023-01-31T10:58:35.351Z,82.75
2023-01-31T10:59:34.956Z,82.14
2023-01-31T11:00:34.945Z,82.24
2023-01-31T11:01:34.954Z,82.38
2023-01-31T11:02:35.106Z,82.03
2023-01-31T11:03:34.917Z,82.17
2023-01-31T11:04:34.901Z,82.17
2023-01-31T11:05:34.881Z,82.24
2023-01-31T11:06:34.884Z,82.03
2023-01-31T11:07:34.890Z,82.55
2023-01-31T11:08:34.859Z,81.62
2023-01-31T11:09:34.865Z,81.31
2023-01-31T11:10:34.864Z,81.72
2023-01-31T11:11:34.838Z,81.21
2023-01-31T11:12:34.868Z,81.41
2023-01-31T11:13:34.810Z,81.27
2023-01-31T11:14:34.794Z,81.41
2023-01-31T11:15:34.796Z,81.31
2023-01-31T11:16:34.866Z,81.31
2023-01-31T11:17:34.791Z,80.48
2023-01-31T11:18:34.763Z,80.69
2023-01-31T11:19:34.739Z,80.69
2023-01-31T11:20:34.751Z,81.21
2023-01-31T11:21:34.731Z,81.10
2023-01-31T11:22:34.699Z,81.31
2023-01-31T11:23:34.693Z,81.00
2023-01-31T11:24:34.698Z,81.41
2023-01-31T11:25:34.683Z,81.21
2023-01-31T11:26:34.756Z,82.24
2023-01-31T11:27:34.657Z,82.45
2023-01-31T11:28:34.675Z,83.06
2023-01-31T11:29:34.650Z,83.68
2023-01-31T11:30:34.695Z,83.89
2023-01-31T11:31:34.648Z,84.03
2023-01-31T11:32:34.602Z,83.93
2023-01-31T11:33:34.595Z,84.20
2023-01-31T11:34:34.605Z,83.83
2023-01-31T11:35:34.560Z,83.99
2023-01-31T11:36:34.564Z,84.44
2023-01-31T11:37:34.990Z,84.23
2023-01-31T11:38:34.536Z,84.34
2023-01-31T11:39:34.552Z,84.34
2023-01-31T11:40:34.512Z,84.65
2023-01-31T11:41:34.496Z,84.86
2023-01-31T11:42:34.501Z,84.20
2023-01-31T11:43:34.486Z,84.30
2023-01-31T11:44:34.485Z,84.09
2023-01-31T11:45:34.472Z,84.09
2023-01-31T11:46:34.497Z,83.37
2023-01-31T11:47:34.466Z,83.78
2023-01-31T11:48:34.428Z,83.27
2023-01-31T11:49:34.436Z,84.20
2023-01-31T11:50:34.409Z,83.99
2023-01-31T11:51:34.408Z,82.96
2023-01-31T11:52:34.375Z,82.96
2023-01-31T11:53:34.366Z,83.48
2023-01-31T11:54:34.372Z,83.99
2023-01-31T11:55:34.364Z,83.99
2023-01-31T11:56:34.346Z,83.27
2023-01-31T11:57:34.328Z,82.65
2023-01-31T11:58:34.341Z,82.86
2023-01-31T11:59:34.309Z,82.96
2023-01-31T12:00:34.323Z,82.86
2023-01-31T12:01:34.279Z,83.17
2023-01-31T12:02:34.406Z,82.65
2023-01-31T12:03:34.388Z,82.75
2023-01-31T12:04:34.275Z,82.75
2023-01-31T12:05:34.274Z,82.65
2023-01-31T12:06:34.280Z,83.17
2023-01-31T12:07:34.233Z,83.17
2023-01-31T12:08:34.221Z,83.54
2023-01-31T12:09:34.219Z,83.68
2023-01-31T12:10:34.249Z,83.99
2023-01-31T12:11:34.172Z,84.51
2023-01-31T12:12:34.173Z,84.92
2023-01-31T12:13:34.165Z,84.92
2023-01-31T12:14:34.152Z,84.81
2023-01-31T12:15:34.291Z,84.92
2023-01-31T12:16:34.243Z,84.72
2023-01-31T12:17:34.115Z,85.64
2023-01-31T12:18:34.124Z,85.17
2023-01-31T12:19:34.102Z,86.71
2023-01-31T12:20:34.094Z,86.05
2023-01-31T12:21:34.080Z,86.41
2023-01-31T12:22:34.078Z,86.51
2023-01-31T12:23:34.050Z,86.30
2023-01-31T12:24:34.035Z,86.78
2023-01-31T12:25:34.053Z,86.71
2023-01-31T12:26:34.040Z,87.74
2023-01-31T12:27:33.998Z,87.34
2023-01-31T12:28:34.002Z,87.34
2023-01-31T12:29:33.991Z,87.65
2023-01-31T12:30:34.001Z,87.89
2023-01-31T12:31:34.043Z,88.31
2023-01-31T12:32:33.966Z,88.31
2023-01-31T12:33:34.011Z,88.20
2023-01-31T12:34:33.934Z,87.99
2023-01-31T12:35:33.926Z,88.82
2023-01-31T12:36:33.928Z,89.69
2023-01-31T12:37:33.906Z,90.31
2023-01-31T12:38:33.895Z,90.20
2023-01-31T12:39:33.872Z,90.83
2023-01-31T12:40:33.880Z,90.93
2023-01-31T12:41:33.875Z,90.93
2023-01-31T12:42:33.839Z,91.03
2023-01-31T12:43:33.837Z,91.55
2023-01-31T12:44:33.828Z,91.71
2023-01-31T12:45:33.827Z,91.50
2023-01-31T12:46:33.857Z,90.87
2023-01-31T12:47:33.789Z,91.44
2023-01-31T12:48:33.803Z,91.59
2023-01-31T12:49:33.768Z,92.42
2023-01-31T12:50:33.775Z,92.52
2023-01-31T12:51:33.743Z,93.35
2023-01-31T12:52:33.771Z,93.24